createdAt,value
2023-03-13T00:01:21.618Z,5.26
2023-03-13T00:03:50.545Z,5.26
2023-03-13T00:06:19.414Z,5.26
2023-03-13T00:08:48.176Z,5.26
2023-03-13T00:11:17.096Z,5.28
2023-03-13T00:13:46.002Z,5.27
2023-03-13T00:16:16.658Z,5.27
2023-03-13T00:18:49.931Z,5.27
2023-03-13T00:21:20.215Z,5.28
2023-03-13T00:23:49.461Z,5.29
2023-03-13T00:26:20.087Z,5.30
2023-03-13T00:28:50.884Z,5.29
2023-03-13T00:31:21.604Z,5.29
2023-03-13T00:33:51.941Z,5.29
2023-03-13T00:36:22.381Z,5.28
2023-03-13T00:38:51.397Z,5.27
2023-03-13T00:41:21.982Z,5.26
2023-03-13T00:43:51.115Z,5.25
2023-03-13T00:46:21.974Z,5.25
2023-03-13T00:48:50.951Z,5.25
2023-03-13T00:51:21.187Z,5.24
2023-03-13T00:53:50.343Z,5.27
2023-03-13T00:56:20.369Z,5.27
2023-03-13T00:58:50.133Z,5.28
2023-03-13T01:01:20.392Z,5.30
2023-03-13T01:03:50.704Z,5.29
2023-03-13T01:06:22.357Z,5.29
2023-03-13T01:08:51.702Z,5.31
2023-03-13T01:11:22.124Z,5.33
2023-03-13T01:13:53.646Z,5.36
2023-03-13T01:16:23.408Z,5.36
2023-03-13T01:18:54.198Z,5.38
2023-03-13T01:21:24.386Z,5.38
2023-03-13T01:23:54.397Z,5.41
2023-03-13T01:26:23.927Z,5.43
2023-03-13T01:28:52.758Z,5.44
2023-03-13T01:31:23.183Z,5.44
2023-03-13T01:33:54.412Z,5.42
2023-03-13T01:36:23.968Z,5.38
2023-03-13T01:38:54.239Z,5.36
2023-03-13T01:41:24.255Z,5.36
2023-03-13T01:43:54.872Z,5.36
2023-03-13T01:46:24.870Z,5.38
2023-03-13T01:49:18.709Z,5.39
2023-03-13T01:52:10.659Z,5.39
2023-03-13T01:54:52.484Z,5.40
2023-03-13T01:57:26.920Z,5.39
2023-03-13T01:59:56.760Z,5.34
2023-03-13T02:02:28.109Z,5.28
2023-03-13T02:05:00.908Z,5.25
2023-03-13T02:07:35.093Z,5.23
2023-03-13T02:10:04.677Z,5.21
2023-03-13T02:12:35.712Z,5.20
2023-03-13T02:15:08.055Z,5.20
2023-03-13T02:17:38.116Z,5.21
2023-03-13T02:20:08.986Z,5.22
2023-03-13T02:22:47.055Z,5.23
2023-03-13T02:25:26.878Z,5.23
2023-03-13T02:28:01.429Z,5.24
2023-03-13T02:30:31.386Z,5.25
2023-03-13T02:33:00.993Z,5.24
2023-03-13T02:35:31.945Z,5.26
2023-03-13T02:38:04.231Z,5.28
2023-03-13T02:40:35.773Z,5.29
2023-03-13T02:43:07.417Z,5.29
2023-03-13T02:45:36.342Z,5.31
2023-03-13T02:48:05.659Z,5.32
2023-03-13T02:50:35.837Z,5.33
2023-03-13T02:53:07.510Z,5.33
2023-03-13T02:55:40.624Z,5.34
2023-03-13T02:58:09.801Z,5.36
2023-03-13T03:00:40.849Z,5.37
2023-03-13T03:03:09.450Z,5.38
2023-03-13T03:05:38.718Z,5.39
2023-03-13T03:08:07.521Z,5.40
2023-03-13T03:10:37.261Z,5.43
2023-03-13T03:13:06.159Z,5.45
2023-03-13T03:15:34.714Z,5.47
2023-03-13T03:18:03.792Z,5.50
2023-03-13T03:20:32.559Z,5.51
2023-03-13T03:23:01.271Z,5.54
2023-03-13T03:25:30.003Z,5.58
2023-03-13T03:27:58.809Z,5.59
2023-03-13T03:30:27.848Z,5.63
2023-03-13T03:32:56.744Z,5.67
2023-03-13T03:35:25.542Z,5.70
2023-03-13T03:37:54.158Z,5.70
2023-03-13T03:40:23.009Z,5.71
2023-03-13T03:42:51.673Z,5.73
2023-03-13T03:45:20.317Z,5.74
2023-03-13T03:47:48.950Z,5.74
2023-03-13T03:50:18.066Z,5.75
2023-03-13T03:52:54.640Z,5.75
2023-03-13T03:55:24.361Z,5.77
2023-03-13T03:57:53.320Z,5.77
2023-03-13T04:00:33.746Z,5.77
2023-03-13T04:03:02.632Z,5.77
2023-03-13T04:05:31.402Z,5.78
2023-03-13T04:08:00.482Z,5.78
2023-03-13T04:10:29.199Z,5.79
2023-03-13T04:12:58.120Z,5.81
2023-03-13T04:15:27.688Z,5.84
2023-03-13T04:17:56.466Z,5.86
2023-03-13T04:20:26.280Z,5.89
2023-03-13T04:22:55.070Z,5.91
2023-03-13T04:25:24.234Z,5.93
2023-03-13T04:27:54.879Z,5.96
2023-03-13T04:30:26.221Z,5.97
2023-03-13T04:33:30.292Z,5.98
2023-03-13T04:36:21.416Z,6.00
2023-03-13T04:38:50.103Z,6.02
2023-03-13T04:41:42.256Z,6.03
2023-03-13T04:44:25.267Z,6.04
2023-03-13T04:47:02.772Z,6.05
2023-03-13T04:49:46.220Z,6.07
2023-03-13T04:52:38.135Z,6.08
2023-03-13T04:55:26.313Z,6.09
2023-03-13T04:58:27.149Z,6.10
2023-03-13T05:01:22.124Z,6.10
2023-03-13T05:04:03.605Z,6.11
2023-03-13T05:06:52.464Z,6.09
2023-03-13T05:09:36.574Z,6.10
2023-03-13T05:12:24.028Z,6.10
2023-03-13T05:15:05.995Z,6.12
2023-03-13T05:17:54.759Z,6.12
2023-03-13T05:20:46.296Z,6.12
2023-03-13T05:23:38.169Z,6.12
2023-03-13T05:26:29.744Z,6.13
2023-03-13T05:29:24.533Z,6.12
2023-03-13T05:32:10.627Z,6.11
2023-03-13T05:34:48.475Z,6.12
2023-03-13T05:37:40.190Z,6.11
2023-03-13T05:40:32.674Z,6.09
2023-03-13T05:43:24.531Z,6.09
2023-03-13T05:46:10.204Z,6.10
2023-03-13T05:48:57.324Z,6.14
2023-03-13T05:51:48.120Z,6.18
2023-03-13T05:54:43.663Z,6.21
2023-03-13T05:57:38.783Z,6.24
2023-03-13T06:00:30.344Z,6.29
2023-03-13T06:03:28.488Z,6.36
2023-03-13T06:05:59.574Z,6.43
2023-03-13T06:08:51.279Z,6.51
2023-03-13T06:11:21.559Z,6.57
2023-03-13T06:13:51.780Z,6.64
2023-03-13T06:16:37.647Z,6.73
2023-03-13T06:19:15.943Z,6.84
2023-03-13T06:21:44.799Z,6.95
2023-03-13T06:24:14.447Z,7.04
2023-03-13T06:26:43.218Z,7.11
2023-03-13T06:29:11.983Z,7.16
2023-03-13T06:31:40.631Z,7.19
2023-03-13T06:34:11.155Z,7.20
2023-03-13T06:36:40.279Z,7.21
2023-03-13T06:39:09.048Z,7.21
2023-03-13T06:41:38.230Z,7.21
2023-03-13T06:44:06.988Z,7.21
2023-03-13T06:46:35.683Z,7.23
2023-03-13T06:49:05.311Z,7.26
2023-03-13T06:51:34.406Z,7.28
2023-03-13T06:54:03.366Z,7.40
2023-03-13T06:56:32.146Z,7.56
2023-03-13T06:59:00.793Z,7.73
2023-03-13T07:01:29.481Z,7.94
2023-03-13T07:03:58.250Z,8.18
2023-03-13T07:06:27.132Z,8.53
2023-03-13T07:08:55.793Z,8.91
2023-03-13T07:11:25.386Z,9.27
2023-03-13T07:14:09.927Z,9.52
2023-03-13T07:16:43.955Z,9.69
2023-03-13T07:19:13.213Z,9.75
2023-03-13T07:21:42.300Z,9.81
2023-03-13T07:24:11.064Z,9.81
2023-03-13T07:26:41.207Z,9.73
2023-03-13T07:29:11.297Z,9.68
2023-03-13T07:31:40.061Z,9.65
2023-03-13T07:34:08.816Z,9.63
2023-03-13T07:36:37.441Z,9.66
2023-03-13T07:39:05.981Z,9.68
2023-03-13T07:41:34.725Z,9.73
2023-03-13T07:44:03.366Z,9.87
2023-03-13T07:46:31.927Z,10.12
2023-03-13T07:49:00.846Z,10.22
2023-03-13T07:51:42.520Z,10.29
2023-03-13T07:54:12.113Z,10.44
2023-03-13T07:56:40.917Z,10.45
2023-03-13T07:59:10.141Z,10.48
2023-03-13T08:01:38.871Z,10.62
2023-03-13T08:04:10.105Z,10.82
2023-03-13T08:06:46.096Z,10.93
2023-03-13T08:09:17.208Z,11.11
2023-03-13T08:11:46.144Z,11.20
2023-03-13T08:14:14.787Z,11.20
2023-03-13T08:16:43.377Z,11.17
2023-03-13T08:19:12.228Z,11.10
2023-03-13T08:21:40.742Z,11.10
2023-03-13T08:24:12.434Z,11.22
2023-03-13T08:26:42.309Z,11.34
2023-03-13T08:29:12.551Z,11.43
2023-03-13T08:31:46.887Z,11.61
2023-03-13T08:34:16.687Z,11.63
2023-03-13T08:36:46.006Z,11.63
2023-03-13T08:39:16.127Z,11.65
2023-03-13T08:41:44.765Z,11.58
2023-03-13T08:44:15.441Z,11.51
2023-03-13T08:46:44.545Z,11.40
2023-03-13T08:49:13.096Z,11.36
2023-03-13T08:51:42.131Z,11.31
2023-03-13T08:54:10.939Z,11.24
2023-03-13T08:56:40.354Z,11.19
2023-03-13T08:59:09.776Z,11.16
2023-03-13T09:01:38.420Z,11.13
2023-03-13T09:04:07.566Z,11.11
2023-03-13T09:06:38.259Z,11.11
2023-03-13T09:09:08.014Z,11.10
2023-03-13T09:11:38.674Z,11.11
2023-03-13T09:14:08.068Z,11.10
2023-03-13T09:16:36.699Z,11.13
2023-03-13T09:19:05.941Z,11.15
2023-03-13T09:21:35.602Z,11.17
2023-03-13T09:24:04.798Z,11.16
2023-03-13T09:26:33.441Z,11.15
2023-03-13T09:29:02.179Z,11.10
2023-03-13T09:31:31.979Z,11.07
2023-03-13T09:34:01.264Z,11.06
2023-03-13T09:36:30.197Z,11.05
2023-03-13T09:39:00.986Z,11.08
2023-03-13T09:41:36.281Z,11.12
2023-03-13T09:44:11.533Z,11.17
2023-03-13T09:46:47.927Z,11.26
2023-03-13T09:49:29.517Z,11.29
2023-03-13T09:52:04.538Z,11.29
2023-03-13T09:54:38.357Z,11.30
2023-03-13T09:57:13.843Z,11.32
2023-03-13T09:59:47.661Z,11.36
2023-03-13T10:02:26.689Z,11.41
2023-03-13T10:05:03.327Z,11.44
2023-03-13T10:07:36.980Z,11.50
2023-03-13T10:10:11.454Z,11.52
2023-03-13T10:12:44.409Z,11.55
2023-03-13T10:15:32.624Z,11.57
2023-03-13T10:18:12.386Z,11.58
2023-03-13T10:20:42.711Z,11.58
2023-03-13T10:23:17.639Z,11.56
2023-03-13T10:25:46.225Z,11.57
2023-03-13T10:28:16.640Z,11.59
2023-03-13T10:30:48.658Z,11.58
2023-03-13T10:33:23.859Z,11.59
2023-03-13T10:36:04.521Z,11.61
2023-03-13T10:38:35.683Z,11.61
2023-03-13T10:41:17.739Z,11.60
2023-03-13T10:43:52.593Z,11.59
2023-03-13T10:46:27.381Z,11.62
2023-03-13T10:48:57.417Z,11.66
2023-03-13T10:51:35.115Z,11.70
2023-03-13T10:54:15.074Z,11.72
2023-03-13T10:56:43.736Z,11.74
2023-03-13T10:59:24.536Z,11.77
2023-03-13T11:01:58.314Z,11.81
2023-03-13T11:04:31.811Z,11.82
2023-03-13T11:07:03.813Z,11.82
2023-03-13T11:09:32.774Z,11.83
2023-03-13T11:12:06.686Z,11.85
2023-03-13T11:14:35.555Z,11.88
2023-03-13T11:17:11.430Z,11.90
2023-03-13T11:19:53.772Z,11.89
2023-03-13T11:22:53.405Z,11.84
2023-03-13T11:25:28.020Z,11.77
2023-03-13T11:28:09.827Z,11.73
2023-03-13T11:30:58.301Z,11.68
2023-03-13T11:33:35.206Z,11.61
2023-03-13T11:36:14.549Z,11.54
2023-03-13T11:38:47.997Z,11.44
2023-03-13T11:41:37.265Z,11.36
2023-03-13T11:44:21.907Z,11.28
2023-03-13T11:46:59.999Z,11.21
2023-03-13T11:49:56.605Z,11.19
2023-03-13T11:52:49.224Z,11.17
2023-03-13T11:55:38.724Z,11.18
2023-03-13T11:58:37.280Z,11.19
2023-03-13T12:01:13.229Z,11.20
2023-03-13T12:03:52.064Z,11.21
2023-03-13T12:06:29.274Z,11.24
2023-03-13T12:09:04.736Z,11.25
2023-03-13T12:11:38.050Z,11.27
2023-03-13T12:14:13.583Z,11.29
2023-03-13T12:16:45.911Z,11.32
2023-03-13T12:19:22.086Z,11.33
2023-03-13T12:21:53.487Z,11.34
2023-03-13T12:24:29.682Z,11.33
2023-03-13T12:27:02.056Z,11.33
2023-03-13T12:29:43.307Z,11.34
2023-03-13T12:32:19.663Z,11.37
2023-03-13T12:34:58.967Z,11.40
2023-03-13T12:37:34.222Z,11.41
2023-03-13T12:40:12.262Z,11.41
2023-03-13T12:42:49.497Z,11.41
2023-03-13T12:45:21.057Z,11.40
2023-03-13T12:48:14.729Z,11.42
2023-03-13T12:50:59.018Z,11.43
2023-03-13T12:53:51.199Z,11.44
2023-03-13T12:56:34.442Z,11.46
2023-03-13T12:59:06.944Z,11.47
2023-03-13T13:01:39.699Z,11.46
2023-03-13T13:04:14.624Z,11.43
2023-03-13T13:06:56.156Z,11.41
2023-03-13T13:09:26.890Z,11.38
2023-03-13T13:11:58.357Z,11.37
2023-03-13T13:14:56.929Z,11.34
2023-03-13T13:17:35.415Z,11.32
2023-03-13T13:20:34.661Z,11.30
2023-03-13T13:23:34.349Z,11.29
2023-03-13T13:26:43.489Z,11.28
2023-03-13T13:29:55.658Z,11.24
2023-03-13T13:32:39.801Z,11.17
2023-03-13T13:35:23.332Z,11.11
2023-03-13T13:37:54.785Z,11.08
2023-03-13T13:40:29.114Z,11.08
2023-03-13T13:42:58.866Z,11.08
2023-03-13T13:45:30.140Z,11.10
2023-03-13T13:48:32.224Z,11.10
2023-03-13T13:51:23.266Z,11.08
2023-03-13T13:53:57.586Z,11.07
2023-03-13T13:56:42.736Z,11.04
2023-03-13T13:59:40.598Z,11.01
2023-03-13T14:02:30.313Z,11.02
2023-03-13T14:05:07.752Z,11.04
2023-03-13T14:07:49.797Z,11.07
2023-03-13T14:10:36.170Z,11.12
2023-03-13T14:13:12.856Z,11.18
2023-03-13T14:15:46.153Z,11.25
2023-03-13T14:18:22.104Z,11.29
2023-03-13T14:20:59.249Z,11.32
2023-03-13T14:23:34.660Z,11.35
2023-03-13T14:26:15.670Z,11.39
2023-03-13T14:28:46.591Z,11.40
2023-03-13T14:31:26.471Z,11.40
2023-03-13T14:33:56.497Z,11.39
2023-03-13T14:36:25.999Z,11.40
2023-03-13T14:38:56.698Z,11.42
2023-03-13T14:41:30.968Z,11.44
2023-03-13T14:44:05.116Z,11.45
2023-03-13T14:46:36.311Z,11.45
2023-03-13T14:49:17.536Z,11.44
2023-03-13T14:51:49.734Z,11.43
2023-03-13T14:54:30.888Z,11.41
2023-03-13T14:57:20.566Z,11.41
2023-03-13T14:59:50.081Z,11.39
2023-03-13T15:02:23.739Z,11.37
2023-03-13T15:04:56.758Z,11.34
2023-03-13T15:07:27.039Z,11.32
2023-03-13T15:09:59.022Z,11.29
2023-03-13T15:12:30.411Z,11.27
2023-03-13T15:14:59.054Z,11.23
2023-03-13T15:17:30.767Z,11.20
2023-03-13T15:20:02.793Z,11.17
2023-03-13T15:22:33.055Z,11.14
2023-03-13T15:25:08.566Z,11.13
2023-03-13T15:27:37.704Z,11.12
2023-03-13T15:30:10.252Z,11.11
2023-03-13T15:32:42.098Z,11.11
2023-03-13T15:35:24.098Z,11.09
2023-03-13T15:37:53.501Z,11.09
2023-03-13T15:40:24.169Z,11.07
2023-03-13T15:42:53.914Z,11.08
2023-03-13T15:45:22.866Z,11.08
2023-03-13T15:47:51.723Z,11.09
2023-03-13T15:50:24.942Z,11.10
2023-03-13T15:52:53.752Z,11.11
2023-03-13T15:55:23.559Z,11.12
2023-03-13T15:57:53.715Z,11.13
2023-03-13T16:00:25.657Z,11.15
2023-03-13T16:02:59.039Z,11.17
2023-03-13T16:05:28.807Z,11.18
2023-03-13T16:07:59.960Z,11.20
2023-03-13T16:10:31.928Z,11.23
2023-03-13T16:13:02.879Z,11.26
2023-03-13T16:15:32.107Z,11.26
2023-03-13T16:18:00.787Z,11.27
2023-03-13T16:20:31.253Z,11.28
2023-03-13T16:23:03.156Z,11.29
2023-03-13T16:25:32.502Z,11.30
2023-03-13T16:28:01.275Z,11.31
2023-03-13T16:30:32.459Z,11.31
2023-03-13T16:33:01.521Z,11.31
2023-03-13T16:35:30.327Z,11.30
2023-03-13T16:37:59.677Z,11.30
2023-03-13T16:40:30.967Z,11.28
2023-03-13T16:43:01.842Z,11.26
2023-03-13T16:45:30.719Z,11.25
2023-03-13T16:47:59.394Z,11.23
2023-03-13T16:50:32.347Z,11.22
2023-03-13T16:53:01.880Z,11.21
2023-03-13T16:55:35.584Z,11.20
2023-03-13T16:58:05.073Z,11.20
2023-03-13T17:00:34.579Z,11.21
2023-03-13T17:03:04.195Z,11.19
2023-03-13T17:05:32.907Z,11.18
2023-03-13T17:08:01.970Z,11.17
2023-03-13T17:10:32.713Z,11.15
2023-03-13T17:13:02.166Z,11.12
2023-03-13T17:15:30.966Z,11.09
2023-03-13T17:17:59.972Z,11.06
2023-03-13T17:20:30.007Z,11.02
2023-03-13T17:23:00.482Z,11.00
2023-03-13T17:25:29.873Z,10.97
2023-03-13T17:27:58.855Z,10.94
2023-03-13T17:30:30.411Z,10.93
2023-03-13T17:33:00.173Z,10.91
2023-03-13T17:35:29.026Z,10.88
2023-03-13T17:37:57.774Z,10.86
2023-03-13T17:40:28.770Z,10.83
2023-03-13T17:42:58.209Z,10.81
2023-03-13T17:45:26.873Z,10.77
2023-03-13T17:47:55.543Z,10.74
2023-03-13T17:50:26.937Z,10.72
2023-03-13T17:52:56.656Z,10.70
2023-03-13T17:55:25.502Z,10.65
2023-03-13T17:57:54.382Z,10.62
2023-03-13T18:00:28.476Z,10.59
2023-03-13T18:02:57.185Z,10.56
2023-03-13T18:05:26.469Z,10.53
2023-03-13T18:07:56.357Z,10.50
2023-03-13T18:10:29.147Z,10.47
2023-03-13T18:12:58.311Z,10.45
2023-03-13T18:15:27.959Z,10.44
2023-03-13T18:17:56.957Z,10.41
2023-03-13T18:20:29.912Z,10.40
2023-03-13T18:22:59.801Z,10.36
2023-03-13T18:25:29.234Z,10.33
2023-03-13T18:27:58.410Z,10.31
2023-03-13T18:30:28.022Z,10.29
2023-03-13T18:32:56.730Z,10.26
2023-03-13T18:35:28.260Z,10.21
2023-03-13T18:37:57.293Z,10.17
2023-03-13T18:40:27.950Z,10.14
2023-03-13T18:42:56.675Z,10.11
2023-03-13T18:45:26.433Z,10.08
2023-03-13T18:47:55.309Z,10.07
2023-03-13T18:50:26.361Z,10.06
2023-03-13T18:52:56.340Z,10.06
2023-03-13T18:55:26.730Z,10.07
2023-03-13T18:57:56.690Z,10.07
2023-03-13T19:00:27.833Z,10.07
2023-03-13T19:02:57.312Z,10.05
2023-03-13T19:05:26.954Z,10.03
2023-03-13T19:07:55.636Z,10.01
2023-03-13T19:10:27.334Z,9.99
2023-03-13T19:12:57.843Z,10.00
2023-03-13T19:15:30.448Z,10.04
2023-03-13T19:18:03.042Z,10.09
2023-03-13T19:20:32.222Z,10.15
2023-03-13T19:23:01.251Z,10.20
2023-03-13T19:25:30.138Z,10.23
2023-03-13T19:27:59.101Z,10.26
2023-03-13T19:30:28.453Z,10.28
2023-03-13T19:32:57.583Z,10.31
2023-03-13T19:35:26.491Z,10.32
2023-03-13T19:37:55.294Z,10.32
2023-03-13T19:40:28.043Z,10.31
2023-03-13T19:42:56.834Z,10.29
2023-03-13T19:45:27.093Z,10.27
2023-03-13T19:47:55.904Z,10.25
2023-03-13T19:50:27.328Z,10.24
2023-03-13T19:52:58.474Z,10.23
2023-03-13T19:55:27.293Z,10.22
2023-03-13T19:57:56.363Z,10.21
2023-03-13T20:00:27.310Z,10.17
2023-03-13T20:02:56.253Z,10.14
2023-03-13T20:05:26.684Z,10.11
2023-03-13T20:07:55.661Z,10.11
2023-03-13T20:10:25.022Z,10.12
2023-03-13T20:12:54.012Z,10.12
2023-03-13T20:15:22.653Z,10.12
2023-03-13T20:17:51.398Z,10.12
2023-03-13T20:20:20.377Z,10.11
2023-03-13T20:22:49.394Z,10.11
2023-03-13T20:25:18.348Z,10.11
2023-03-13T20:27:46.998Z,10.12
2023-03-13T20:30:16.065Z,10.11
2023-03-13T20:32:59.332Z,10.09
2023-03-13T20:35:29.236Z,10.08
2023-03-13T20:38:00.227Z,10.07
2023-03-13T20:40:29.005Z,10.06
2023-03-13T20:42:59.438Z,10.04
2023-03-13T20:45:29.504Z,10.00
2023-03-13T20:47:58.605Z,9.97
2023-03-13T20:50:29.094Z,9.94
2023-03-13T20:52:57.626Z,9.90
2023-03-13T20:55:26.334Z,9.84
2023-03-13T20:57:54.886Z,9.79
2023-03-13T21:00:24.308Z,9.73
2023-03-13T21:02:53.703Z,9.64
2023-03-13T21:05:22.553Z,9.57
2023-03-13T21:07:51.565Z,9.55
2023-03-13T21:10:20.664Z,9.59
2023-03-13T21:12:49.673Z,9.64
2023-03-13T21:15:19.095Z,9.71
2023-03-13T21:17:47.805Z,9.75
2023-03-13T21:20:16.587Z,9.85
2023-03-13T21:22:46.289Z,9.98
2023-03-13T21:25:15.570Z,10.14
2023-03-13T21:27:44.462Z,10.29
2023-03-13T21:30:17.523Z,10.44
2023-03-13T21:32:46.702Z,10.53
2023-03-13T21:35:16.511Z,10.62
2023-03-13T21:37:45.720Z,10.68
2023-03-13T21:40:14.634Z,10.74
2023-03-13T21:42:43.694Z,10.81
2023-03-13T21:45:12.549Z,10.87
2023-03-13T21:47:41.144Z,10.94
2023-03-13T21:50:12.710Z,10.99
2023-03-13T21:52:41.699Z,11.07
2023-03-13T21:55:12.577Z,11.12
2023-03-13T21:57:41.332Z,11.17
2023-03-13T22:00:13.643Z,11.21
2023-03-13T22:02:42.650Z,11.24
2023-03-13T22:05:11.977Z,11.23
2023-03-13T22:07:40.620Z,11.22
2023-03-13T22:10:11.226Z,11.23
2023-03-13T22:12:39.829Z,11.22
2023-03-13T22:15:10.959Z,11.20
2023-03-13T22:17:39.860Z,11.19
2023-03-13T22:20:11.082Z,11.19
2023-03-13T22:22:39.633Z,11.17
2023-03-13T22:25:09.472Z,11.15
2023-03-13T22:27:38.771Z,11.15
2023-03-13T22:30:10.433Z,11.16
2023-03-13T22:32:39.273Z,11.16
2023-03-13T22:35:09.218Z,11.17
2023-03-13T22:37:38.089Z,11.16
2023-03-13T22:40:10.216Z,11.17
2023-03-13T22:42:37.973Z,11.18
2023-03-13T22:45:08.923Z,11.18
2023-03-13T22:47:39.113Z,11.21
2023-03-13T22:50:10.389Z,11.26
2023-03-13T22:52:39.480Z,11.29
2023-03-13T22:55:09.388Z,11.29
2023-03-13T22:57:38.018Z,11.28
2023-03-13T23:00:11.176Z,11.28
2023-03-13T23:02:39.887Z,11.24
2023-03-13T23:05:10.740Z,11.22
2023-03-13T23:07:40.381Z,11.21
2023-03-13T23:10:12.067Z,11.23
2023-03-13T23:12:42.091Z,11.26
2023-03-13T23:15:12.318Z,11.27
2023-03-13T23:17:40.902Z,11.25
2023-03-13T23:20:12.775Z,11.25
2023-03-13T23:22:42.624Z,11.26
2023-03-13T23:25:13.038Z,11.26
2023-03-13T23:27:42.369Z,11.29
2023-03-13T23:30:14.288Z,11.31
2023-03-13T23:32:45.539Z,11.30
2023-03-13T23:35:18.597Z,11.23
2023-03-13T23:37:53.202Z,11.14
2023-03-13T23:40:24.444Z,11.03
2023-03-13T23:42:53.096Z,10.92
2023-03-13T23:45:21.813Z,10.81
2023-03-13T23:47:52.856Z,10.71
2023-03-13T23:50:23.016Z,10.63
2023-03-13T23:52:51.623Z,10.57
2023-03-13T23:55:20.418Z,10.50
2023-03-13T23:57:49.754Z,10.44
